Nearby METAR Reports

 

CYOW - Ottawa Intl, Ontario, Canada
Distance from station: N 33km
Updated: Wed, 26-Jun-2019 7:00pm EDT
Mostly cloudy
Mostly cloudy
 Wind from SW
Wind: SW 19 km/h, Gust: 28 km/h
Temperature: 27°C
Heat Index: 28°C
Dew Point: 17°C
Humidity: 54%
Barometer: 29.90 inHg , 1012.5 hPa
Clouds: Mostly cloudy
Visibility: 24 km
Cloud details: Few Clouds 1372 m
Few Clouds 3048 m
Mostly cloudy 6706 m
2019/06/26 23:00 CYOW 262300Z 22010G15KT 15SM FEW045TCU FEW100 BKN220 27/17 A2990 RMK TCU1AC1CI3 SLP127 DENSITY ALT 1900FT
CYGK - Kingston Arpt, Ontario, Canada
Distance from station: SW 117km
Updated: Wed, 26-Jun-2019 7:00pm EDT
Few Clouds
Few Clouds
 Wind from WSW
Wind: WSW 11 km/h
Temperature: 26°C
Dew Point: 19°C
Humidity: 65%
Barometer: 29.95 inHg , 1014.2 hPa
Clouds: Few Clouds
Visibility: 24 km
Cloud details: Few Clouds 610 m
Few Clouds 8230 m
2019/06/26 23:00 CYGK 262300Z 25006KT 15SM FEW020 FEW270 26/19 A2995 RMK CU1CI2 CU TR SLP142 DENSITY ALT 1700FT
KMSS - Massena, New York, USA
Distance from station: E 62km
Updated: Wed, 26-Jun-2019 6:53pm EDT
Clear
Clear
 Wind from WSW
Wind: WSW 17 km/h
Temperature: 27°C
Heat Index: 28°C
Dew Point: 17°C
Humidity: 54%
Barometer: 29.93 inHg , 1013.5 hPa
Clouds: Clear
Visibility: 16 km
2019/06/26 22:53 KMSS 262253Z AUTO 24009KT 10SM CLR 27/17 A2993 RMK AO2 SLP135 T02670172